Time;durP1;ratioP1;P1;durP2;ratioP2;P2;SDS_P1;SDS_P2;PMS_P1;PMS_P2;Temp;Humidity;BMP_temperature;BMP_pressure;BME280_temperature;BME280_humidity;BME280_pressure;Samples;Min_cycle;Max_cycle;Signal;HPM_P1;HPM_P2
2023/05/11 00:00:25;;;;;;;1.05;0.75;;;21.30;55.00;;;;;;4121288;28;20069;-56
2023/05/11 00:02:47;;;;;;;0.85;0.60;;;21.20;55.30;;;;;;4126149;28;20050;-59
2023/05/11 00:05:10;;;;;;;1.17;0.70;;;21.10;55.60;;;;;;4126989;28;20038;-58
2023/05/11 00:07:32;;;;;;;1.58;0.70;;;21.10;55.80;;;;;;4126156;28;20038;-57
2023/05/11 00:09:55;;;;;;;2.35;0.95;;;21.00;55.90;;;;;;4123518;28;20069;-58
2023/05/11 00:12:17;;;;;;;2.80;1.08;;;20.90;56.20;;;;;;4115036;28;20117;-64
2023/05/11 00:14:42;;;;;;;1.02;0.70;;;20.90;56.30;;;;;;4117448;28;20046;-60
2023/05/11 00:17:05;;;;;;;3.67;1.52;;;20.80;56.50;;;;;;4126038;28;20057;-60
2023/05/11 00:19:30;;;;;;;0.88;0.70;;;20.80;56.60;;;;;;4128075;28;20030;-59
2023/05/11 00:22:04;;;;;;;1.55;0.90;;;20.70;56.50;;;;;;4124848;28;20485;-59
2023/05/11 00:24:27;;;;;;;2.05;0.70;;;20.70;56.70;;;;;;4119297;28;20145;-57
2023/05/11 00:26:49;;;;;;;0.98;0.70;;;20.70;56.70;;;;;;4109798;28;20117;-56
2023/05/11 00:29:12;;;;;;;3.13;0.95;;;20.60;56.40;;;;;;4119323;28;20065;-57
2023/05/11 00:31:34;;;;;;;1.00;0.70;;;20.50;56.20;;;;;;4125889;28;20088;-57
2023/05/11 00:33:58;;;;;;;1.25;0.80;;;20.50;56.00;;;;;;4124301;28;20762;-56
2023/05/11 00:36:20;;;;;;;1.02;0.93;;;20.40;55.90;;;;;;4126326;28;20605;-59
2023/05/11 00:38:43;;;;;;;1.35;0.82;;;20.40;56.00;;;;;;4122812;28;20049;-57
2023/05/11 00:41:05;;;;;;;1.83;1.30;;;20.40;55.70;;;;;;4121397;28;20066;-56
2023/05/11 00:43:28;;;;;;;1.85;1.10;;;20.30;55.30;;;;;;4127080;28;20553;-58
2023/05/11 00:45:51;;;;;;;1.48;1.00;;;20.30;55.10;;;;;;4124345;28;20034;-59
2023/05/11 00:48:15;;;;;;;1.40;0.90;;;20.20;55.30;;;;;;4113776;28;20057;-57
2023/05/11 00:50:37;;;;;;;2.25;1.02;;;20.20;55.10;;;;;;4122811;28;20042;-51
2023/05/11 00:53:00;;;;;;;1.23;0.98;;;20.10;55.30;;;;;;4124309;28;20454;-57
2023/05/11 00:55:23;;;;;;;1.60;1.00;;;20.10;55.40;;;;;;4121447;28;20038;-57
2023/05/11 00:57:47;;;;;;;1.08;0.98;;;20.10;55.40;;;;;;4105804;28;20042;-59
2023/05/11 01:00:10;;;;;;;1.30;1.10;;;20.00;55.60;;;;;;4122593;28;20066;-56
2023/05/11 01:02:33;;;;;;;2.40;1.08;;;20.00;55.70;;;;;;4123353;28;20502;-53
2023/05/11 01:04:55;;;;;;;3.10;1.13;;;20.00;55.80;;;;;;4117823;28;20096;-57
2023/05/11 01:07:46;;;;;;;1.42;0.90;;;19.90;55.80;;;;;;4115553;28;20041;-59
2023/05/11 01:10:47;;;;;;;2.47;1.00;;;19.90;56.00;;;;;;4126618;28;20042;-59
2023/05/11 01:13:19;;;;;;;2.05;1.08;;;19.80;56.10;;;;;;4124404;28;20034;-53
2023/05/11 01:15:57;;;;;;;1.40;0.90;;;19.90;56.20;;;;;;4120977;28;20046;-56
2023/05/11 01:19:03;;;;;;;0.93;0.68;;;19.80;56.40;;;;;;4122020;28;20086;-54
2023/05/11 01:21:30;;;;;;;6.53;1.45;;;19.80;56.80;;;;;;4087022;28;20475;-55
2023/05/11 01:23:55;;;;;;;1.58;0.80;;;19.80;56.80;;;;;;4120369;28;20077;-57
2023/05/11 01:26:47;;;;;;;2.17;0.85;;;19.70;56.90;;;;;;4124849;28;20109;-57
2023/05/11 01:29:37;;;;;;;3.28;0.90;;;19.70;56.90;;;;;;4121615;28;20073;-59
2023/05/11 01:32:06;;;;;;;1.73;0.85;;;19.70;57.10;;;;;;4118587;28;20045;-62
2023/05/11 01:34:33;;;;;;;1.90;0.80;;;19.70;57.50;;;;;;4113973;28;20434;-58
2023/05/11 01:37:00;;;;;;;1.60;0.70;;;19.90;57.80;;;;;;4118249;28;20034;-60
2023/05/11 01:39:39;;;;;;;2.15;0.70;;;20.60;56.60;;;;;;4120080;28;20038;-59
2023/05/11 01:42:09;;;;;;;5.22;0.90;;;21.60;55.00;;;;;;4102353;28;20062;-60
2023/05/11 01:44:32;;;;;;;3.58;0.63;;;22.40;53.70;;;;;;4117962;28;20050;-61
2023/05/11 01:46:57;;;;;;;3.38;0.77;;;23.10;52.50;;;;;;4118932;28;20402;-59
2023/05/11 01:49:21;;;;;;;3.17;0.63;;;23.70;51.50;;;;;;4121781;28;20082;-61
2023/05/11 01:51:44;;;;;;;4.70;0.93;;;24.30;50.50;;;;;;4123452;28;20042;-61
2023/05/11 01:54:08;;;;;;;4.05;0.80;;;24.80;49.90;;;;;;4119468;28;20085;-59
2023/05/11 01:56:33;;;;;;;10.30;0.85;;;25.20;49.30;;;;;;4123846;28;20486;-59
2023/05/11 01:58:57;;;;;;;2.47;0.70;;;25.30;49.10;;;;;;4106395;28;20038;-61
2023/05/11 02:01:20;;;;;;;2.22;0.60;;;24.90;49.50;;;;;;4108357;28;20023;-57
2023/05/11 02:03:45;;;;;;;3.13;0.85;;;24.60;50.50;;;;;;4123481;28;20517;-54
2023/05/11 02:06:09;;;;;;;3.47;0.60;;;24.20;50.50;;;;;;4116406;28;20034;-54
2023/05/11 02:08:32;;;;;;;3.22;0.93;;;23.80;51.40;;;;;;4120435;28;20129;-56
2023/05/11 02:10:56;;;;;;;3.40;1.25;;;23.60;52.00;;;;;;4122598;28;20030;-53
2023/05/11 02:13:19;;;;;;;6.40;0.80;;;23.30;52.20;;;;;;4105979;28;20043;-55
2023/05/11 02:15:44;;;;;;;3.08;0.70;;;23.10;52.30;;;;;;4117146;28;20125;-56
2023/05/11 02:18:11;;;;;;;1.25;0.50;;;23.00;52.40;;;;;;4118839;28;20034;-56
2023/05/11 02:20:35;;;;;;;5.70;1.05;;;22.80;52.40;;;;;;4115184;28;20038;-56
2023/05/11 02:22:58;;;;;;;1.08;0.65;;;22.70;52.50;;;;;;4124611;28;20496;-57
2023/05/11 02:25:21;;;;;;;3.38;0.70;;;22.60;52.70;;;;;;4117991;28;20034;-58
2023/05/11 02:27:44;;;;;;;1.40;0.70;;;22.50;52.80;;;;;;4118566;28;20041;-57
2023/05/11 02:30:13;;;;;;;0.80;0.60;;;22.40;52.90;;;;;;4114804;28;20327;-57
2023/05/11 02:32:47;;;;;;;1.15;0.60;;;22.30;52.90;;;;;;4099259;28;20074;-53
2023/05/11 02:35:27;;;;;;;1.13;0.70;;;22.20;53.10;;;;;;4099971;28;20091;-58
2023/05/11 02:37:53;;;;;;;1.33;0.70;;;22.20;53.10;;;;;;4091955;28;20043;-58
2023/05/11 02:40:18;;;;;;;2.40;0.57;;;22.10;53.30;;;;;;4092706;28;20079;-59
2023/05/11 02:42:44;;;;;;;1.10;0.70;;;22.10;53.50;;;;;;4106639;28;20494;-57
2023/05/11 02:45:10;;;;;;;1.67;0.73;;;22.00;53.80;;;;;;4110842;28;20058;-59
2023/05/11 02:47:38;;;;;;;5.07;0.90;;;22.00;54.10;;;;;;4107584;28;20039;-57
2023/05/11 02:50:04;;;;;;;7.00;1.08;;;22.00;54.50;;;;;;4107785;28;20047;-62
2023/05/11 02:52:27;;;;;;;5.47;1.33;;;21.90;54.70;;;;;;4096096;28;20039;-59
2023/05/11 02:54:52;;;;;;;5.93;1.70;;;21.90;54.80;;;;;;4112894;28;20046;-58
2023/05/11 02:57:14;;;;;;;3.20;1.02;;;21.80;55.00;;;;;;4113764;28;20132;-59
2023/05/11 02:59:37;;;;;;;2.70;1.00;;;21.80;55.30;;;;;;4108836;28;20114;-58
2023/05/11 03:02:00;;;;;;;5.85;1.10;;;21.80;56.10;;;;;;4107805;28;20728;-60
2023/05/11 03:04:23;;;;;;;3.85;0.93;;;21.80;55.60;;;;;;4106118;28;20054;-61
2023/05/11 03:06:45;;;;;;;5.50;1.10;;;21.80;55.80;;;;;;4101756;28;20046;-54
2023/05/11 03:09:08;;;;;;;2.25;0.82;;;21.80;55.90;;;;;;4085409;28;20039;-60
2023/05/11 03:11:30;;;;;;;3.17;1.02;;;21.80;55.90;;;;;;4107252;28;20046;-59
2023/05/11 03:13:53;;;;;;;5.10;1.05;;;21.80;56.50;;;;;;4108236;28;20067;-61
2023/05/11 03:16:17;;;;;;;2.97;1.00;;;21.80;56.40;;;;;;4109156;28;20090;-60
2023/05/11 03:18:40;;;;;;;2.60;0.70;;;21.80;56.50;;;;;;4111689;28;20054;-59
2023/05/11 03:21:03;;;;;;;3.58;0.75;;;21.80;56.70;;;;;;4113222;28;20070;-60
2023/05/11 03:23:30;;;;;;;3.45;0.95;;;21.80;56.70;;;;;;4102767;28;20160;-60
2023/05/11 03:25:53;;;;;;;3.67;0.82;;;21.80;56.90;;;;;;4104234;28;20153;-59
2023/05/11 03:28:16;;;;;;;1.10;0.65;;;21.80;56.90;;;;;;4111200;28;20498;-61
2023/05/11 03:30:39;;;;;;;1.70;0.77;;;21.80;56.90;;;;;;4113137;28;20065;-60
2023/05/11 03:33:02;;;;;;;5.13;1.70;;;21.80;57.00;;;;;;4129050;28;20038;-58
2023/05/11 03:35:28;;;;;;;3.78;1.00;;;21.90;57.00;;;;;;4121673;28;20061;-59
2023/05/11 03:37:51;;;;;;;2.45;0.70;;;21.90;56.90;;;;;;4113102;28;20403;-56
2023/05/11 03:40:15;;;;;;;2.15;0.82;;;22.00;56.90;;;;;;4127323;28;20503;-59
2023/05/11 03:42:39;;;;;;;0.93;0.70;;;22.00;56.90;;;;;;4126808;28;20042;-57
2023/05/11 03:45:02;;;;;;;2.15;1.02;;;22.00;56.80;;;;;;4127095;28;20050;-59
2023/05/11 03:47:29;;;;;;;4.13;0.85;;;22.00;56.90;;;;;;4128313;28;20034;-56
2023/05/11 03:49:52;;;;;;;1.92;0.60;;;22.10;56.90;;;;;;4128204;28;20038;-58
2023/05/11 03:52:15;;;;;;;1.90;0.80;;;22.10;56.80;;;;;;4129082;28;20126;-60
2023/05/11 03:54:38;;;;;;;1.80;0.60;;;22.20;56.80;;;;;;4098493;28;20046;-60
2023/05/11 03:57:00;;;;;;;1.52;0.93;;;22.20;56.70;;;;;;4126919;28;20035;-61
2023/05/11 03:59:23;;;;;;;1.60;0.80;;;22.30;56.70;;;;;;4120171;28;20034;-59
2023/05/11 04:01:46;;;;;;;2.88;1.13;;;22.30;56.60;;;;;;4117598;28;20095;-56
2023/05/11 04:04:08;;;;;;;1.80;0.80;;;22.40;56.60;;;;;;4107880;28;20051;-58
2023/05/11 04:06:31;;;;;;;1.42;0.70;;;22.40;56.50;;;;;;4130124;28;20034;-56
2023/05/11 04:08:53;;;;;;;1.30;0.80;;;22.50;56.40;;;;;;4127239;28;20470;-59
2023/05/11 04:11:16;;;;;;;3.78;0.90;;;22.50;56.40;;;;;;4127154;28;20522;-59
2023/05/11 04:13:38;;;;;;;1.42;0.60;;;22.50;56.40;;;;;;4124347;28;20130;-56
2023/05/11 04:16:01;;;;;;;2.03;0.60;;;22.60;56.40;;;;;;4126628;28;20170;-59
2023/05/11 04:18:23;;;;;;;2.17;0.73;;;22.60;56.40;;;;;;4124827;28;20041;-58
2023/05/11 04:20:46;;;;;;;7.65;1.77;;;22.70;56.40;;;;;;4123795;28;20042;-57
2023/05/11 04:23:08;;;;;;;8.25;1.42;;;22.70;56.50;;;;;;4123498;28;20073;-58
2023/05/11 04:25:30;;;;;;;3.40;1.00;;;22.80;56.50;;;;;;4126833;28;20516;-53
2023/05/11 04:27:53;;;;;;;6.20;1.08;;;22.80;56.30;;;;;;4123440;28;20090;-57
2023/05/11 04:30:15;;;;;;;4.32;1.40;;;22.90;56.20;;;;;;4111157;28;20776;-58
2023/05/11 04:32:38;;;;;;;2.90;1.23;;;23.00;56.20;;;;;;4125700;28;20468;-57
2023/05/11 04:35:00;;;;;;;3.20;1.10;;;23.00;56.20;;;;;;4123769;28;20038;-52
2023/05/11 04:37:23;;;;;;;3.50;1.40;;;22.90;56.30;;;;;;4126051;28;20041;-58
2023/05/11 04:39:45;;;;;;;5.70;1.35;;;22.90;56.40;;;;;;4119434;28;20074;-57
2023/05/11 04:42:07;;;;;;;1.63;0.82;;;22.90;56.40;;;;;;4122984;28;20031;-58
2023/05/11 04:44:30;;;;;;;1.88;1.10;;;22.90;56.50;;;;;;4126487;28;20577;-57
2023/05/11 04:46:56;;;;;;;1.88;1.20;;;22.90;56.50;;;;;;4122435;28;20101;-59
2023/05/11 04:49:18;;;;;;;3.30;1.35;;;22.90;56.60;;;;;;4107903;28;20039;-58
2023/05/11 04:51:41;;;;;;;3.17;1.17;;;22.90;56.60;;;;;;4118130;28;20202;-58
2023/05/11 04:54:03;;;;;;;5.22;1.50;;;22.90;56.50;;;;;;4126938;28;20124;-57
2023/05/11 04:56:26;;;;;;;4.22;1.20;;;22.90;56.50;;;;;;4125052;28;20370;-57
2023/05/11 04:58:48;;;;;;;5.53;1.27;;;23.00;56.80;;;;;;4128443;28;20038;-59
2023/05/11 05:01:10;;;;;;;5.80;1.83;;;23.00;56.70;;;;;;4121275;28;20545;-57
2023/05/11 05:03:33;;;;;;;3.60;1.67;;;23.00;56.60;;;;;;4120897;28;21069;-57
2023/05/11 05:05:55;;;;;;;8.02;1.45;;;23.00;56.60;;;;;;4137544;22;20073;-69
2023/05/11 05:08:20;;;;;;;3.13;1.40;;;23.00;56.60;;;;;;4124900;28;20093;-67
2023/05/11 05:10:43;;;;;;;6.45;1.60;;;23.00;56.60;;;;;;4115068;28;20052;-67
2023/05/11 05:13:05;;;;;;;3.28;1.20;;;23.00;56.60;;;;;;4143638;28;20030;-65
2023/05/11 05:15:28;;;;;;;4.35;1.30;;;23.00;56.60;;;;;;4134451;28;20038;-66
2023/05/11 05:17:50;;;;;;;8.30;1.75;;;23.00;56.60;;;;;;4127020;28;20081;-66
2023/05/11 05:20:12;;;;;;;5.10;1.52;;;23.00;56.60;;;;;;4140388;28;20037;-66
2023/05/11 05:22:35;;;;;;;18.55;1.90;;;23.00;56.70;;;;;;4127600;28;20034;-67
2023/05/11 05:24:58;;;;;;;6.43;1.80;;;23.00;56.90;;;;;;4132892;28;20143;-67
2023/05/11 05:27:20;;;;;;;4.53;1.50;;;23.00;56.40;;;;;;4132622;28;20038;-68
2023/05/11 05:29:43;;;;;;;3.13;1.42;;;23.00;56.90;;;;;;4146967;28;20168;-83
2023/05/11 05:32:05;;;;;;;6.22;1.90;;;23.00;56.90;;;;;;4152548;28;20109;-75
2023/05/11 05:34:28;;;;;;;3.53;1.73;;;23.10;56.90;;;;;;4143564;28;20041;-74
2023/05/11 05:36:50;;;;;;;4.40;1.73;;;23.10;56.80;;;;;;4141537;28;20136;-81
2023/05/11 05:39:13;;;;;;;2.10;1.35;;;23.10;56.80;;;;;;4124742;28;20034;-76
2023/05/11 05:41:35;;;;;;;2.83;1.30;;;23.10;56.80;;;;;;4121125;28;20050;-83
2023/05/11 05:43:58;;;;;;;2.80;1.30;;;23.10;56.80;;;;;;4111686;28;20085;-74
2023/05/11 05:46:20;;;;;;;4.22;1.60;;;23.10;56.80;;;;;;4125862;28;20061;-77
2023/05/11 05:48:43;;;;;;;2.55;1.17;;;23.10;56.80;;;;;;4128210;28;20150;-83
2023/05/11 05:51:05;;;;;;;3.35;1.35;;;23.10;56.80;;;;;;4121764;28;20069;-84
2023/05/11 05:53:28;;;;;;;4.57;1.63;;;23.10;56.80;;;;;;4120644;28;20452;-75
2023/05/11 05:55:50;;;;;;;5.03;1.27;;;23.00;57.10;;;;;;4125344;28;20046;-76
2023/05/11 05:58:12;;;;;;;4.18;1.30;;;23.00;57.20;;;;;;4121391;28;20030;-78
2023/05/11 06:00:35;;;;;;;3.83;1.42;;;23.00;57.20;;;;;;4128056;28;20046;-81
2023/05/11 06:03:01;;;;;;;2.40;1.20;;;23.00;57.30;;;;;;4130267;28;20043;-80
2023/05/11 06:05:23;;;;;;;4.80;1.85;;;22.90;57.30;;;;;;4116757;28;20097;-73
2023/05/11 06:07:45;;;;;;;2.40;1.10;;;22.90;57.30;;;;;;4126530;28;20153;-75
2023/05/11 06:10:08;;;;;;;1.77;1.20;;;22.90;57.30;;;;;;4126597;28;20114;-74
2023/05/11 06:12:33;;;;;;;2.92;1.48;;;22.90;57.50;;;;;;4124852;28;20656;-74
2023/05/11 06:14:56;;;;;;;4.78;1.52;;;22.90;57.40;;;;;;4125555;28;20077;-74
2023/05/11 06:17:18;;;;;;;7.13;1.75;;;22.90;57.50;;;;;;4124045;28;20069;-77
2023/05/11 06:19:41;;;;;;;3.67;1.45;;;22.90;57.60;;;;;;4130661;28;20035;-75
2023/05/11 06:22:03;;;;;;;3.42;1.17;;;22.90;57.60;;;;;;4121937;28;20038;-77
2023/05/11 06:24:26;;;;;;;5.05;1.45;;;23.00;58.40;;;;;;4119942;28;20051;-67
2023/05/11 06:26:48;;;;;;;3.50;1.30;;;23.00;57.80;;;;;;4131124;28;20069;-66
2023/05/11 06:29:10;;;;;;;9.30;2.42;;;23.00;57.80;;;;;;4121033;28;20042;-69
2023/05/11 06:31:33;;;;;;;6.25;1.88;;;23.00;58.00;;;;;;4119375;28;20101;-67
2023/05/11 06:33:55;;;;;;;3.30;1.60;;;23.00;57.90;;;;;;4121822;28;20097;-66
2023/05/11 06:36:18;;;;;;;6.18;2.33;;;23.00;57.80;;;;;;4124574;28;20081;-67
2023/05/11 06:38:40;;;;;;;5.57;1.80;;;23.00;57.80;;;;;;4123213;28;20038;-66
2023/05/11 06:41:02;;;;;;;6.18;1.50;;;23.00;58.00;;;;;;4128046;28;20092;-67
2023/05/11 06:43:25;;;;;;;4.25;1.58;;;23.00;58.20;;;;;;4126120;28;20058;-67
2023/05/11 06:45:48;;;;;;;2.45;1.33;;;23.00;58.40;;;;;;4123921;28;20496;-68
2023/05/11 06:48:10;;;;;;;3.33;1.58;;;22.90;58.50;;;;;;4123340;28;20058;-68
2023/05/11 06:50:33;;;;;;;5.32;2.00;;;22.80;58.60;;;;;;4117410;28;20077;-68
2023/05/11 06:52:55;;;;;;;8.80;1.50;;;22.80;58.80;;;;;;4118099;28;20030;-67
2023/05/11 06:55:17;;;;;;;6.03;1.40;;;22.80;58.90;;;;;;4115437;28;20030;-67
2023/05/11 06:57:40;;;;;;;7.72;1.63;;;22.80;59.00;;;;;;4124630;28;20165;-68
2023/05/11 07:00:03;;;;;;;3.10;1.63;;;22.70;59.00;;;;;;4125119;28;20086;-67
2023/05/11 07:02:25;;;;;;;4.13;1.88;;;22.70;59.10;;;;;;4121794;28;20645;-68
2023/05/11 07:04:47;;;;;;;3.75;1.38;;;22.70;59.20;;;;;;4120619;28;20047;-66
2023/05/11 07:07:11;;;;;;;3.72;1.80;;;22.70;59.30;;;;;;4122907;28;20508;-69
2023/05/11 07:09:33;;;;;;;13.20;1.55;;;22.70;58.80;;;;;;4117254;28;20179;-67
2023/05/11 07:11:56;;;;;;;2.53;1.48;;;22.70;59.30;;;;;;4117960;28;20070;-69
2023/05/11 07:14:19;;;;;;;6.25;1.70;;;22.70;59.30;;;;;;4119459;28;20050;-66
2023/05/11 07:16:41;;;;;;;3.83;1.40;;;22.70;59.50;;;;;;4124111;28;20057;-66
2023/05/11 07:19:10;;;;;;;3.53;1.75;;;22.60;59.20;;;;;;4126446;28;20413;-69
2023/05/11 07:21:33;;;;;;;2.60;1.20;;;22.60;59.10;;;;;;4122597;28;20030;-68
2023/05/11 07:23:55;;;;;;;1.87;1.30;;;22.70;59.20;;;;;;4126779;28;20102;-68
2023/05/11 07:26:18;;;;;;;2.20;1.10;;;22.60;59.00;;;;;;4132114;28;20374;-66
2023/05/11 07:28:40;;;;;;;5.07;1.17;;;22.60;59.00;;;;;;4112851;28;20062;-68
2023/05/11 07:31:03;;;;;;;3.50;1.42;;;22.60;59.00;;;;;;4125710;28;20041;-68
2023/05/11 07:33:25;;;;;;;3.40;1.45;;;22.60;59.10;;;;;;4122839;28;20038;-69
2023/05/11 07:35:48;;;;;;;3.15;1.55;;;22.60;58.90;;;;;;4136996;28;20484;-75
2023/05/11 07:38:12;;;;;;;4.85;1.42;;;22.60;58.40;;;;;;4124323;28;20528;-74
2023/05/11 07:40:35;;;;;;;6.63;1.95;;;22.50;58.40;;;;;;4127685;28;20595;-79
2023/05/11 07:42:57;;;;;;;2.28;1.48;;;22.40;58.40;;;;;;4128425;28;20458;-75
2023/05/11 07:45:20;;;;;;;4.25;1.73;;;22.40;58.30;;;;;;4128198;28;20411;-75
2023/05/11 07:47:43;;;;;;;5.55;2.00;;;22.40;58.40;;;;;;4127655;28;20026;-75
2023/05/11 07:50:06;;;;;;;6.55;2.92;;;22.30;58.30;;;;;;4127374;28;20042;-77
2023/05/11 07:52:29;;;;;;;9.70;3.90;;;22.30;58.40;;;;;;4129291;28;20077;-75
2023/05/11 07:54:51;;;;;;;11.25;5.35;;;22.30;59.10;;;;;;4128149;28;20288;-75
2023/05/11 07:57:14;;;;;;;9.23;5.63;;;22.20;58.50;;;;;;4127793;28;20060;-76
2023/05/11 07:59:36;;;;;;;10.75;6.43;;;22.20;58.60;;;;;;4128408;28;20476;-78
2023/05/11 08:01:59;;;;;;;11.65;6.43;;;22.10;58.70;;;;;;4130423;28;20524;-74
2023/05/11 08:04:21;;;;;;;10.48;5.13;;;22.10;59.00;;;;;;4131237;28;20510;-80
2023/05/11 08:06:47;;;;;;;10.80;5.10;;;22.10;59.00;;;;;;4115057;28;20360;-77
2023/05/11 08:09:09;;;;;;;8.32;4.38;;;22.00;59.10;;;;;;4112984;28;20043;-75
2023/05/11 08:11:32;;;;;;;8.75;4.30;;;22.00;59.10;;;;;;4121584;28;20495;-75
2023/05/11 08:13:54;;;;;;;6.65;3.88;;;22.00;59.10;;;;;;4129840;28;20072;-75
2023/05/11 08:16:17;;;;;;;6.60;3.90;;;21.90;59.00;;;;;;4129375;28;20112;-77
2023/05/11 08:18:39;;;;;;;5.88;3.28;;;21.90;59.50;;;;;;4116057;28;20038;-76
2023/05/11 08:21:01;;;;;;;9.75;4.43;;;22.00;59.80;;;;;;4127405;28;20034;-76
2023/05/11 08:23:24;;;;;;;7.18;3.42;;;21.90;60.10;;;;;;4128260;28;20065;-77
2023/05/11 08:25:50;;;;;;;6.78;2.67;;;21.90;60.20;;;;;;4118574;28;20148;-76
2023/05/11 08:28:13;;;;;;;6.63;3.17;;;21.90;60.40;;;;;;4121693;28;20042;-76
2023/05/11 08:30:35;;;;;;;5.18;2.50;;;21.90;60.50;;;;;;4124324;28;20050;-75
2023/05/11 08:32:57;;;;;;;5.05;2.50;;;21.90;60.50;;;;;;4117394;28;20629;-75
2023/05/11 08:35:20;;;;;;;6.18;2.72;;;21.90;60.70;;;;;;4115254;28;20125;-76
2023/05/11 08:37:43;;;;;;;3.75;2.20;;;22.00;60.70;;;;;;4123922;28;20407;-74
2023/05/11 08:40:06;;;;;;;3.72;2.55;;;22.00;60.80;;;;;;4126831;28;20488;-75
2023/05/11 08:42:31;;;;;;;4.00;2.40;;;22.00;60.90;;;;;;4129468;28;20034;-77
2023/05/11 08:44:56;;;;;;;5.47;2.50;;;22.00;60.90;;;;;;4128400;28;20056;-75
2023/05/11 08:47:19;;;;;;;5.18;2.22;;;22.00;60.90;;;;;;4128331;28;20065;-75
2023/05/11 08:49:42;;;;;;;3.50;2.33;;;22.00;60.90;;;;;;4120362;28;20042;-74
2023/05/11 08:52:05;;;;;;;5.60;3.20;;;22.10;60.80;;;;;;4121168;28;20123;-72
2023/05/11 08:54:28;;;;;;;8.65;3.50;;;22.00;60.20;;;;;;4119233;28;20918;-73
2023/05/11 08:56:51;;;;;;;6.40;3.03;;;22.10;60.10;;;;;;4122227;28;20035;-75
2023/05/11 08:59:14;;;;;;;5.60;3.22;;;22.10;60.00;;;;;;4121472;28;20806;-75
2023/05/11 09:01:38;;;;;;;4.97;3.22;;;22.10;60.00;;;;;;4122102;28;20500;-74
2023/05/11 09:04:00;;;;;;;;;;;22.10;60.30;;;;;;4118344;28;20124;-72
2023/05/11 09:06:24;;;;;;;5.35;2.85;;;22.10;60.50;;;;;;4110512;28;20535;-74
2023/05/11 09:08:47;;;;;;;4.43;2.65;;;22.10;60.30;;;;;;4119792;28;20085;-74
2023/05/11 09:11:10;;;;;;;6.65;3.70;;;22.10;60.60;;;;;;4119130;28;20038;-74
2023/05/11 09:13:32;;;;;;;4.78;2.92;;;22.10;59.80;;;;;;4116143;28;20053;-74
2023/05/11 09:15:55;;;;;;;4.40;3.03;;;22.10;60.40;;;;;;4125180;28;20030;-76
2023/05/11 09:18:17;;;;;;;7.30;2.90;;;22.10;59.70;;;;;;4122611;28;20038;-75
2023/05/11 09:20:43;;;;;;;4.15;2.60;;;22.10;59.80;;;;;;4119705;28;20030;-75
2023/05/11 09:23:07;;;;;;;5.88;3.08;;;22.00;59.70;;;;;;4119168;28;20048;-74
2023/05/11 09:25:33;;;;;;;6.57;2.53;;;22.10;59.70;;;;;;4120189;28;20038;-77
2023/05/11 09:27:59;;;;;;;5.20;2.47;;;22.10;59.70;;;;;;4121222;28;20563;-73
2023/05/11 09:30:23;;;;;;;4.80;2.90;;;22.10;59.70;;;;;;4111966;28;20042;-75
2023/05/11 09:32:54;;;;;;;8.75;3.40;;;22.10;59.80;;;;;;4121997;28;20042;-74
2023/05/11 09:35:30;;;;;;;4.45;2.50;;;22.10;59.70;;;;;;4112155;28;20050;-75
2023/05/11 09:38:13;;;;;;;5.80;2.72;;;22.10;59.60;;;;;;4113319;28;20045;-69
2023/05/11 09:40:42;;;;;;;6.25;2.83;;;22.00;59.60;;;;;;4117289;28;20039;-71
2023/05/11 09:43:27;;;;;;;6.18;2.60;;;22.10;59.70;;;;;;4114521;28;20040;-70
2023/05/11 09:45:52;;;;;;;5.25;2.75;;;22.10;59.70;;;;;;4116012;28;20045;-70
2023/05/11 09:48:20;;;;;;;3.80;2.42;;;22.10;59.90;;;;;;4113904;28;20034;-71
2023/05/11 09:50:43;;;;;;;4.70;2.70;;;22.10;59.60;;;;;;4116103;28;20424;-69
2023/05/11 09:53:05;;;;;;;4.82;2.65;;;22.10;59.60;;;;;;4120053;28;20141;-72
2023/05/11 09:55:28;;;;;;;5.28;2.60;;;22.10;59.70;;;;;;4117484;28;20039;-73
2023/05/11 09:58:01;;;;;;;3.40;2.40;;;22.10;59.70;;;;;;4112621;28;20043;-73
2023/05/11 10:00:26;;;;;;;4.07;2.47;;;22.10;59.60;;;;;;4112486;28;20044;-73
2023/05/11 10:03:06;;;;;;;5.60;2.83;;;22.00;59.50;;;;;;4113585;28;20069;-76
2023/05/11 10:05:30;;;;;;;6.65;2.88;;;22.00;59.60;;;;;;4119481;28;20285;-76
2023/05/11 10:08:04;;;;;;;4.80;2.50;;;22.00;59.50;;;;;;4117798;28;20042;-75
2023/05/11 10:10:29;;;;;;;5.33;2.80;;;22.00;59.40;;;;;;4124723;28;20038;-73
2023/05/11 10:12:52;;;;;;;4.70;3.17;;;22.00;59.40;;;;;;4112643;28;20409;-74
2023/05/11 10:15:15;;;;;;;4.20;2.67;;;22.00;59.50;;;;;;4117757;28;20049;-71
2023/05/11 10:17:37;;;;;;;4.72;2.67;;;22.00;59.40;;;;;;4119952;28;20072;-72
2023/05/11 10:20:03;;;;;;;4.30;2.90;;;22.00;59.40;;;;;;4118376;28;20112;-71
2023/05/11 10:22:26;;;;;;;5.25;3.22;;;22.00;59.40;;;;;;4116809;28;20041;-70
2023/05/11 10:24:50;;;;;;;5.03;2.60;;;22.00;59.30;;;;;;4115062;28;20043;-73
2023/05/11 10:27:13;;;;;;;;;;;22.00;59.40;;;;;;4120623;28;20035;-76
2023/05/11 10:29:37;;;;;;;3.78;2.30;;;22.00;59.50;;;;;;4118464;28;19969;-73
2023/05/11 10:32:02;;;;;;;6.97;2.60;;;21.90;59.40;;;;;;4117169;28;20847;-71
2023/05/11 10:34:24;;;;;;;5.70;2.50;;;21.90;59.60;;;;;;4117679;28;20077;-71
2023/05/11 10:36:48;;;;;;;4.47;2.50;;;21.90;59.80;;;;;;4119401;28;20100;-70
2023/05/11 10:39:11;;;;;;;4.18;2.08;;;21.90;60.00;;;;;;4114482;28;20061;-69
2023/05/11 10:42:07;;;;;;;3.08;1.95;;;21.90;60.10;;;;;;4121192;28;20050;-72
2023/05/11 10:44:50;;;;;;;3.67;2.05;;;21.90;60.20;;;;;;4059729;28;20052;-70
2023/05/11 10:47:37;;;;;;;4.10;2.25;;;21.90;60.40;;;;;;4119995;28;20058;-71
2023/05/11 10:50:15;;;;;;;3.58;1.77;;;21.90;60.50;;;;;;4124398;28;20118;-74
2023/05/11 10:52:59;;;;;;;4.88;2.30;;;21.90;60.10;;;;;;4116405;28;20046;-73
2023/05/11 10:55:27;;;;;;;3.63;2.40;;;21.90;59.80;;;;;;4121767;28;20038;-73
2023/05/11 10:58:09;;;;;;;3.33;2.00;;;21.90;59.80;;;;;;4114027;28;20148;-74
2023/05/11 11:00:49;;;;;;;3.80;1.83;;;21.90;60.70;;;;;;4119978;28;20408;-73
2023/05/11 11:03:14;;;;;;;3.58;2.08;;;21.90;60.20;;;;;;4119455;28;20049;-74
2023/05/11 11:05:37;;;;;;;2.95;1.90;;;21.90;60.40;;;;;;4122067;28;20055;-75
2023/05/11 11:08:04;;;;;;;6.83;2.20;;;21.90;60.40;;;;;;4117483;28;20050;-76
2023/05/11 11:10:48;;;;;;;6.53;2.40;;;21.80;60.20;;;;;;4110942;28;20436;-74
2023/05/11 11:13:16;;;;;;;4.97;2.13;;;21.80;60.00;;;;;;4123576;28;20030;-73
2023/05/11 11:16:08;;;;;;;5.25;2.38;;;21.80;60.10;;;;;;4105558;28;20039;-73
2023/05/11 11:18:35;;;;;;;2.80;1.73;;;21.80;60.20;;;;;;4122200;28;20045;-73
2023/05/11 11:20:58;;;;;;;3.92;2.13;;;21.80;59.90;;;;;;4123008;28;20073;-74
2023/05/11 11:23:39;;;;;;;3.50;1.88;;;21.80;60.50;;;;;;4118197;28;20052;-73
2023/05/11 11:26:01;;;;;;;2.28;1.73;;;21.80;60.50;;;;;;4124478;28;20412;-74
2023/05/11 11:28:24;;;;;;;3.33;1.70;;;21.80;60.50;;;;;;4116736;28;20125;-71
2023/05/11 11:30:46;;;;;;;2.80;1.88;;;21.80;60.60;;;;;;4123982;28;20073;-71
2023/05/11 11:33:09;;;;;;;3.97;1.40;;;21.80;60.60;;;;;;4126453;28;20042;-70
2023/05/11 11:35:41;;;;;;;3.20;1.80;;;21.80;60.50;;;;;;4130978;28;20038;-71
2023/05/11 11:38:07;;;;;;;2.35;1.60;;;21.80;61.20;;;;;;4131330;28;20458;-70
2023/05/11 11:40:44;;;;;;;2.90;1.70;;;21.80;60.60;;;;;;4127215;28;20081;-71
2023/05/11 11:43:27;;;;;;;3.08;1.67;;;21.80;60.50;;;;;;4125293;28;20528;-72
2023/05/11 11:45:58;;;;;;;3.47;1.70;;;21.80;60.50;;;;;;4129809;28;20046;-73
2023/05/11 11:48:32;;;;;;;2.83;1.60;;;21.70;60.40;;;;;;4122039;28;20034;-72
2023/05/11 11:51:03;;;;;;;2.13;1.50;;;21.70;60.40;;;;;;4131736;28;20185;-73
2023/05/11 11:53:42;;;;;;;2.53;1.50;;;21.70;60.40;;;;;;4122715;28;20571;-71
2023/05/11 11:56:10;;;;;;;2.50;1.92;;;21.70;60.40;;;;;;4121828;28;20111;-71
2023/05/11 11:58:45;;;;;;;3.03;1.60;;;21.70;60.50;;;;;;4131678;28;20092;-72
2023/05/11 12:01:09;;;;;;;16.05;2.58;;;21.70;60.80;;;;;;4127901;28;20030;-70
2023/05/11 12:03:30;;;;;;;;;;;21.70;60.60;;;;;;4129406;28;20149;-70
2023/05/11 12:05:59;;;;;;;11.13;2.20;;;21.70;60.60;;;;;;4126035;28;20032;-70
2023/05/11 12:08:23;;;;;;;5.18;1.60;;;21.70;60.60;;;;;;4120645;28;20030;-69
2023/05/11 12:10:53;;;;;;;9.90;1.92;;;21.70;60.50;;;;;;4129910;28;20041;-70
2023/05/11 12:13:18;;;;;;;5.15;1.85;;;21.70;60.40;;;;;;4127622;28;20864;-73
2023/05/11 12:15:41;;;;;;;6.93;1.67;;;21.70;60.40;;;;;;4126852;28;20038;-71
2023/05/11 12:18:04;;;;;;;8.55;2.28;;;21.70;60.50;;;;;;4123988;28;20573;-71
2023/05/11 12:20:26;;;;;;;4.93;1.55;;;21.60;60.60;;;;;;4129371;28;20476;-71
2023/05/11 12:22:50;;;;;;;3.83;1.83;;;21.60;60.50;;;;;;4123218;28;20069;-70
2023/05/11 12:25:16;;;;;;;21.23;2.40;;;21.60;60.60;;;;;;4136728;28;20057;-71
2023/05/11 12:27:59;;;;;;;3.60;1.67;;;21.60;60.60;;;;;;4126985;28;20042;-71
2023/05/11 12:30:28;;;;;;;15.10;2.50;;;21.50;60.70;;;;;;4119863;28;20407;-71
2023/05/11 12:32:51;;;;;;;4.93;1.40;;;21.50;60.80;;;;;;4128979;28;20742;-72
2023/05/11 12:35:15;;;;;;;5.40;1.58;;;21.50;60.90;;;;;;4128093;28;20046;-72
2023/05/11 12:37:42;;;;;;;3.60;1.40;;;21.50;61.40;;;;;;4128692;28;20506;-72